sensor_id;sensor_type;location;lat;lon;timestamp;P1;durP1;ratioP1;P2;durP2;ratioP2
13439;SDS011;6792;57.698;11.946;2024-02-04T00:00:04;27.00;;;4.27;;
13439;SDS011;6792;57.698;11.946;2024-02-04T00:02:35;27.03;;;4.23;;
13439;SDS011;6792;57.698;11.946;2024-02-04T00:07:49;34.37;;;4.70;;
13439;SDS011;6792;57.698;11.946;2024-02-04T00:10:18;25.00;;;3.57;;
13439;SDS011;6792;57.698;11.946;2024-02-04T00:12:48;22.63;;;3.60;;
13439;SDS011;6792;57.698;11.946;2024-02-04T00:15:17;22.17;;;4.03;;
13439;SDS011;6792;57.698;11.946;2024-02-04T00:17:46;19.03;;;3.67;;
13439;SDS011;6792;57.698;11.946;2024-02-04T00:20:15;17.53;;;3.43;;
13439;SDS011;6792;57.698;11.946;2024-02-04T00:22:45;22.60;;;3.97;;
13439;SDS011;6792;57.698;11.946;2024-02-04T00:25:14;16.00;;;3.27;;
13439;SDS011;6792;57.698;11.946;2024-02-04T00:27:45;17.63;;;3.83;;
13439;SDS011;6792;57.698;11.946;2024-02-04T00:30:14;18.27;;;3.00;;
13439;SDS011;6792;57.698;11.946;2024-02-04T00:32:44;15.40;;;2.53;;
13439;SDS011;6792;57.698;11.946;2024-02-04T00:35:13;18.30;;;3.07;;
13439;SDS011;6792;57.698;11.946;2024-02-04T00:37:42;14.77;;;2.67;;
13439;SDS011;6792;57.698;11.946;2024-02-04T00:40:12;19.43;;;2.90;;
13439;SDS011;6792;57.698;11.946;2024-02-04T00:42:41;10.40;;;2.37;;
13439;SDS011;6792;57.698;11.946;2024-02-04T00:45:11;12.97;;;1.93;;
13439;SDS011;6792;57.698;11.946;2024-02-04T00:47:40;11.87;;;2.37;;
13439;SDS011;6792;57.698;11.946;2024-02-04T00:50:09;9.10;;;2.03;;
13439;SDS011;6792;57.698;11.946;2024-02-04T00:52:39;17.53;;;2.43;;
13439;SDS011;6792;57.698;11.946;2024-02-04T00:55:08;8.93;;;1.87;;
13439;SDS011;6792;57.698;11.946;2024-02-04T00:57:38;7.27;;;2.03;;
13439;SDS011;6792;57.698;11.946;2024-02-04T01:00:08;10.00;;;2.07;;
13439;SDS011;6792;57.698;11.946;2024-02-04T01:02:40;13.93;;;2.03;;
13439;SDS011;6792;57.698;11.946;2024-02-04T01:05:09;16.80;;;2.87;;
13439;SDS011;6792;57.698;11.946;2024-02-04T01:07:39;13.33;;;1.97;;
13439;SDS011;6792;57.698;11.946;2024-02-04T01:10:10;16.63;;;1.97;;
13439;SDS011;6792;57.698;11.946;2024-02-04T01:12:39;11.03;;;1.83;;
13439;SDS011;6792;57.698;11.946;2024-02-04T01:15:09;11.03;;;3.17;;
13439;SDS011;6792;57.698;11.946;2024-02-04T01:17:38;18.77;;;2.27;;
13439;SDS011;6792;57.698;11.946;2024-02-04T01:20:09;12.67;;;2.20;;
13439;SDS011;6792;57.698;11.946;2024-02-04T01:22:38;15.77;;;2.53;;
13439;SDS011;6792;57.698;11.946;2024-02-04T01:25:08;10.23;;;2.20;;
13439;SDS011;6792;57.698;11.946;2024-02-04T01:27:37;15.73;;;1.60;;
13439;SDS011;6792;57.698;11.946;2024-02-04T01:30:18;14.83;;;2.13;;
13439;SDS011;6792;57.698;11.946;2024-02-04T01:32:47;12.17;;;1.57;;
13439;SDS011;6792;57.698;11.946;2024-02-04T01:35:16;16.93;;;2.13;;
13439;SDS011;6792;57.698;11.946;2024-02-04T01:37:46;15.17;;;1.93;;
13439;SDS011;6792;57.698;11.946;2024-02-04T01:40:15;7.80;;;1.97;;
13439;SDS011;6792;57.698;11.946;2024-02-04T01:42:45;12.20;;;1.80;;
13439;SDS011;6792;57.698;11.946;2024-02-04T01:45:14;12.77;;;1.87;;
13439;SDS011;6792;57.698;11.946;2024-02-04T01:47:44;12.07;;;1.83;;
13439;SDS011;6792;57.698;11.946;2024-02-04T01:50:14;15.20;;;2.40;;
13439;SDS011;6792;57.698;11.946;2024-02-04T01:52:44;14.73;;;1.90;;
13439;SDS011;6792;57.698;11.946;2024-02-04T01:55:15;7.67;;;1.70;;
13439;SDS011;6792;57.698;11.946;2024-02-04T01:57:45;12.93;;;2.37;;
13439;SDS011;6792;57.698;11.946;2024-02-04T02:00:17;9.80;;;2.00;;
13439;SDS011;6792;57.698;11.946;2024-02-04T02:02:46;15.27;;;1.97;;
13439;SDS011;6792;57.698;11.946;2024-02-04T02:05:16;12.37;;;1.90;;
13439;SDS011;6792;57.698;11.946;2024-02-04T02:07:46;16.97;;;2.57;;
13439;SDS011;6792;57.698;11.946;2024-02-04T02:10:17;14.37;;;2.27;;
13439;SDS011;6792;57.698;11.946;2024-02-04T02:12:48;8.17;;;1.97;;
13439;SDS011;6792;57.698;11.946;2024-02-04T02:15:21;15.83;;;2.03;;
13439;SDS011;6792;57.698;11.946;2024-02-04T02:17:55;6.07;;;1.50;;
13439;SDS011;6792;57.698;11.946;2024-02-04T02:20:34;13.30;;;2.17;;
13439;SDS011;6792;57.698;11.946;2024-02-04T02:23:07;7.53;;;1.90;;
13439;SDS011;6792;57.698;11.946;2024-02-04T02:25:38;11.83;;;1.83;;
13439;SDS011;6792;57.698;11.946;2024-02-04T02:28:08;13.57;;;2.10;;
13439;SDS011;6792;57.698;11.946;2024-02-04T02:30:38;13.83;;;2.23;;
13439;SDS011;6792;57.698;11.946;2024-02-04T02:33:07;14.47;;;2.23;;
13439;SDS011;6792;57.698;11.946;2024-02-04T02:35:37;12.00;;;2.33;;
13439;SDS011;6792;57.698;11.946;2024-02-04T02:38:07;17.67;;;2.70;;
13439;SDS011;6792;57.698;11.946;2024-02-04T02:40:39;7.63;;;1.90;;
13439;SDS011;6792;57.698;11.946;2024-02-04T02:43:11;12.90;;;1.80;;
13439;SDS011;6792;57.698;11.946;2024-02-04T02:45:42;12.73;;;2.17;;
13439;SDS011;6792;57.698;11.946;2024-02-04T02:48:11;15.60;;;2.00;;
13439;SDS011;6792;57.698;11.946;2024-02-04T02:50:41;15.30;;;2.17;;
13439;SDS011;6792;57.698;11.946;2024-02-04T02:53:10;19.47;;;2.43;;
13439;SDS011;6792;57.698;11.946;2024-02-04T02:55:40;20.00;;;2.77;;
13439;SDS011;6792;57.698;11.946;2024-02-04T02:58:09;12.70;;;2.00;;
13439;SDS011;6792;57.698;11.946;2024-02-04T03:00:38;16.00;;;2.63;;
13439;SDS011;6792;57.698;11.946;2024-02-04T03:03:08;14.80;;;2.50;;
13439;SDS011;6792;57.698;11.946;2024-02-04T03:05:37;7.17;;;1.83;;
13439;SDS011;6792;57.698;11.946;2024-02-04T03:08:06;12.60;;;2.10;;
13439;SDS011;6792;57.698;11.946;2024-02-04T03:10:37;16.47;;;2.93;;
13439;SDS011;6792;57.698;11.946;2024-02-04T03:13:06;17.13;;;2.33;;
13439;SDS011;6792;57.698;11.946;2024-02-04T03:15:36;13.43;;;2.33;;
13439;SDS011;6792;57.698;11.946;2024-02-04T03:18:06;18.57;;;2.20;;
13439;SDS011;6792;57.698;11.946;2024-02-04T03:20:36;16.20;;;2.47;;
13439;SDS011;6792;57.698;11.946;2024-02-04T03:23:05;15.50;;;2.00;;
13439;SDS011;6792;57.698;11.946;2024-02-04T03:25:34;14.57;;;2.40;;
13439;SDS011;6792;57.698;11.946;2024-02-04T03:28:04;16.33;;;2.20;;
13439;SDS011;6792;57.698;11.946;2024-02-04T03:30:34;22.67;;;2.47;;
13439;SDS011;6792;57.698;11.946;2024-02-04T03:33:04;12.07;;;2.10;;
13439;SDS011;6792;57.698;11.946;2024-02-04T03:35:33;10.23;;;2.20;;
13439;SDS011;6792;57.698;11.946;2024-02-04T03:38:04;9.80;;;2.03;;
13439;SDS011;6792;57.698;11.946;2024-02-04T03:40:33;14.90;;;2.23;;
13439;SDS011;6792;57.698;11.946;2024-02-04T03:43:03;14.77;;;2.13;;
13439;SDS011;6792;57.698;11.946;2024-02-04T03:45:32;11.47;;;2.33;;
13439;SDS011;6792;57.698;11.946;2024-02-04T03:48:03;13.00;;;2.23;;
13439;SDS011;6792;57.698;11.946;2024-02-04T03:50:33;8.73;;;1.73;;
13439;SDS011;6792;57.698;11.946;2024-02-04T03:53:04;11.00;;;2.23;;
13439;SDS011;6792;57.698;11.946;2024-02-04T03:55:34;12.37;;;2.23;;
13439;SDS011;6792;57.698;11.946;2024-02-04T03:58:03;11.10;;;1.73;;
13439;SDS011;6792;57.698;11.946;2024-02-04T04:00:33;12.53;;;2.77;;
13439;SDS011;6792;57.698;11.946;2024-02-04T04:03:02;15.00;;;2.40;;
13439;SDS011;6792;57.698;11.946;2024-02-04T04:05:32;11.90;;;2.53;;
13439;SDS011;6792;57.698;11.946;2024-02-04T04:08:02;16.00;;;2.20;;
13439;SDS011;6792;57.698;11.946;2024-02-04T04:10:32;10.60;;;2.03;;
13439;SDS011;6792;57.698;11.946;2024-02-04T04:13:02;13.77;;;2.80;;
13439;SDS011;6792;57.698;11.946;2024-02-04T04:15:32;11.63;;;1.83;;
13439;SDS011;6792;57.698;11.946;2024-02-04T04:18:02;15.10;;;2.27;;
13439;SDS011;6792;57.698;11.946;2024-02-04T04:20:34;12.47;;;2.00;;
13439;SDS011;6792;57.698;11.946;2024-02-04T04:23:03;11.97;;;2.37;;
13439;SDS011;6792;57.698;11.946;2024-02-04T04:25:32;9.43;;;2.00;;
13439;SDS011;6792;57.698;11.946;2024-02-04T04:28:01;10.87;;;1.97;;
13439;SDS011;6792;57.698;11.946;2024-02-04T04:30:31;14.20;;;2.17;;
13439;SDS011;6792;57.698;11.946;2024-02-04T04:33:01;16.90;;;2.27;;
13439;SDS011;6792;57.698;11.946;2024-02-04T04:35:42;16.43;;;2.50;;
13439;SDS011;6792;57.698;11.946;2024-02-04T04:38:11;11.80;;;2.33;;
13439;SDS011;6792;57.698;11.946;2024-02-04T04:40:40;16.57;;;1.87;;
13439;SDS011;6792;57.698;11.946;2024-02-04T04:43:10;20.27;;;2.80;;
13439;SDS011;6792;57.698;11.946;2024-02-04T04:45:40;17.27;;;2.50;;
13439;SDS011;6792;57.698;11.946;2024-02-04T04:48:09;13.57;;;2.17;;
13439;SDS011;6792;57.698;11.946;2024-02-04T04:50:38;20.40;;;3.03;;
13439;SDS011;6792;57.698;11.946;2024-02-04T04:53:09;12.90;;;2.33;;
13439;SDS011;6792;57.698;11.946;2024-02-04T04:55:38;19.97;;;2.57;;
13439;SDS011;6792;57.698;11.946;2024-02-04T04:58:08;20.70;;;3.00;;
13439;SDS011;6792;57.698;11.946;2024-02-04T05:00:37;13.67;;;2.70;;
13439;SDS011;6792;57.698;11.946;2024-02-04T05:03:06;20.33;;;3.00;;
13439;SDS011;6792;57.698;11.946;2024-02-04T05:05:35;18.00;;;3.10;;
13439;SDS011;6792;57.698;11.946;2024-02-04T05:08:05;16.87;;;2.40;;
13439;SDS011;6792;57.698;11.946;2024-02-04T05:10:34;20.83;;;2.93;;
13439;SDS011;6792;57.698;11.946;2024-02-04T05:13:04;19.20;;;2.50;;
13439;SDS011;6792;57.698;11.946;2024-02-04T05:15:33;12.57;;;2.40;;
13439;SDS011;6792;57.698;11.946;2024-02-04T05:18:02;13.67;;;2.70;;
13439;SDS011;6792;57.698;11.946;2024-02-04T05:20:32;21.17;;;2.90;;
13439;SDS011;6792;57.698;11.946;2024-02-04T05:23:01;20.30;;;2.60;;
13439;SDS011;6792;57.698;11.946;2024-02-04T05:25:31;13.23;;;2.83;;
13439;SDS011;6792;57.698;11.946;2024-02-04T05:28:00;17.50;;;2.37;;
13439;SDS011;6792;57.698;11.946;2024-02-04T05:30:29;14.27;;;2.70;;
13439;SDS011;6792;57.698;11.946;2024-02-04T05:32:58;13.37;;;2.50;;
13439;SDS011;6792;57.698;11.946;2024-02-04T05:35:28;15.27;;;2.60;;
13439;SDS011;6792;57.698;11.946;2024-02-04T05:37:57;13.73;;;2.80;;
13439;SDS011;6792;57.698;11.946;2024-02-04T05:40:26;16.73;;;3.10;;
13439;SDS011;6792;57.698;11.946;2024-02-04T05:42:55;19.70;;;3.37;;
13439;SDS011;6792;57.698;11.946;2024-02-04T05:45:24;12.70;;;2.40;;
13439;SDS011;6792;57.698;11.946;2024-02-04T05:47:54;13.23;;;2.50;;
13439;SDS011;6792;57.698;11.946;2024-02-04T05:50:23;20.43;;;2.53;;
13439;SDS011;6792;57.698;11.946;2024-02-04T05:52:53;15.50;;;2.67;;
13439;SDS011;6792;57.698;11.946;2024-02-04T05:55:30;14.77;;;3.27;;
13439;SDS011;6792;57.698;11.946;2024-02-04T05:58:00;14.03;;;2.83;;
13439;SDS011;6792;57.698;11.946;2024-02-04T06:00:29;11.60;;;2.53;;
13439;SDS011;6792;57.698;11.946;2024-02-04T06:03:09;14.97;;;2.80;;
13439;SDS011;6792;57.698;11.946;2024-02-04T06:05:39;17.63;;;2.77;;
13439;SDS011;6792;57.698;11.946;2024-02-04T06:08:08;14.93;;;2.43;;
13439;SDS011;6792;57.698;11.946;2024-02-04T06:10:37;16.77;;;2.93;;
13439;SDS011;6792;57.698;11.946;2024-02-04T06:13:06;19.37;;;3.00;;
13439;SDS011;6792;57.698;11.946;2024-02-04T06:15:35;15.17;;;2.80;;
13439;SDS011;6792;57.698;11.946;2024-02-04T06:18:05;14.07;;;2.53;;
13439;SDS011;6792;57.698;11.946;2024-02-04T06:20:34;16.57;;;2.80;;
13439;SDS011;6792;57.698;11.946;2024-02-04T06:23:03;18.90;;;2.87;;
13439;SDS011;6792;57.698;11.946;2024-02-04T06:25:33;19.40;;;2.90;;
13439;SDS011;6792;57.698;11.946;2024-02-04T06:28:02;15.70;;;2.57;;
13439;SDS011;6792;57.698;11.946;2024-02-04T06:30:33;27.70;;;3.27;;
13439;SDS011;6792;57.698;11.946;2024-02-04T06:33:02;16.33;;;2.60;;
13439;SDS011;6792;57.698;11.946;2024-02-04T06:35:32;20.43;;;3.43;;
13439;SDS011;6792;57.698;11.946;2024-02-04T06:38:01;14.97;;;2.63;;
13439;SDS011;6792;57.698;11.946;2024-02-04T06:40:31;19.07;;;3.00;;
13439;SDS011;6792;57.698;11.946;2024-02-04T06:43:00;19.73;;;3.07;;
13439;SDS011;6792;57.698;11.946;2024-02-04T06:45:29;17.43;;;3.53;;
13439;SDS011;6792;57.698;11.946;2024-02-04T06:48:00;26.10;;;2.83;;
13439;SDS011;6792;57.698;11.946;2024-02-04T06:50:30;23.07;;;3.67;;
13439;SDS011;6792;57.698;11.946;2024-02-04T06:52:59;17.50;;;3.83;;
13439;SDS011;6792;57.698;11.946;2024-02-04T06:55:28;25.93;;;3.83;;
13439;SDS011;6792;57.698;11.946;2024-02-04T06:58:08;22.77;;;4.00;;
13439;SDS011;6792;57.698;11.946;2024-02-04T07:00:37;17.90;;;3.40;;
13439;SDS011;6792;57.698;11.946;2024-02-04T07:03:07;16.47;;;3.37;;
13439;SDS011;6792;57.698;11.946;2024-02-04T07:05:36;20.60;;;3.23;;
13439;SDS011;6792;57.698;11.946;2024-02-04T07:08:06;16.67;;;3.03;;
13439;SDS011;6792;57.698;11.946;2024-02-04T07:10:35;21.00;;;3.20;;
13439;SDS011;6792;57.698;11.946;2024-02-04T07:13:04;14.83;;;2.60;;
13439;SDS011;6792;57.698;11.946;2024-02-04T07:15:34;14.57;;;3.07;;
13439;SDS011;6792;57.698;11.946;2024-02-04T07:18:04;16.03;;;3.40;;
13439;SDS011;6792;57.698;11.946;2024-02-04T07:20:34;14.63;;;2.90;;
13439;SDS011;6792;57.698;11.946;2024-02-04T07:23:03;15.40;;;2.57;;
13439;SDS011;6792;57.698;11.946;2024-02-04T07:25:33;11.23;;;2.50;;
13439;SDS011;6792;57.698;11.946;2024-02-04T07:28:02;18.63;;;2.57;;
13439;SDS011;6792;57.698;11.946;2024-02-04T07:30:32;14.37;;;2.37;;
13439;SDS011;6792;57.698;11.946;2024-02-04T07:33:01;12.87;;;2.37;;
13439;SDS011;6792;57.698;11.946;2024-02-04T07:35:31;10.60;;;1.80;;
13439;SDS011;6792;57.698;11.946;2024-02-04T07:38:01;14.00;;;2.03;;
13439;SDS011;6792;57.698;11.946;2024-02-04T07:40:30;10.33;;;2.00;;
13439;SDS011;6792;57.698;11.946;2024-02-04T07:42:59;9.47;;;1.53;;
13439;SDS011;6792;57.698;11.946;2024-02-04T07:45:28;11.47;;;1.93;;
13439;SDS011;6792;57.698;11.946;2024-02-04T07:47:57;11.43;;;2.57;;
13439;SDS011;6792;57.698;11.946;2024-02-04T07:50:26;17.60;;;2.13;;
13439;SDS011;6792;57.698;11.946;2024-02-04T07:52:56;13.17;;;2.83;;
13439;SDS011;6792;57.698;11.946;2024-02-04T07:55:25;14.73;;;2.60;;
13439;SDS011;6792;57.698;11.946;2024-02-04T07:57:54;13.97;;;2.43;;
13439;SDS011;6792;57.698;11.946;2024-02-04T08:00:23;11.13;;;2.33;;
13439;SDS011;6792;57.698;11.946;2024-02-04T08:02:54;15.30;;;2.80;;
13439;SDS011;6792;57.698;11.946;2024-02-04T08:05:23;19.63;;;2.97;;
13439;SDS011;6792;57.698;11.946;2024-02-04T08:07:52;16.57;;;3.03;;
13439;SDS011;6792;57.698;11.946;2024-02-04T08:10:21;13.07;;;3.47;;
13439;SDS011;6792;57.698;11.946;2024-02-04T08:12:50;19.30;;;3.30;;
13439;SDS011;6792;57.698;11.946;2024-02-04T08:15:20;17.40;;;3.40;;
13439;SDS011;6792;57.698;11.946;2024-02-04T08:17:51;16.13;;;3.20;;
13439;SDS011;6792;57.698;11.946;2024-02-04T08:20:20;16.57;;;3.30;;
13439;SDS011;6792;57.698;11.946;2024-02-04T08:22:51;20.33;;;3.20;;
13439;SDS011;6792;57.698;11.946;2024-02-04T08:25:20;17.90;;;3.63;;
13439;SDS011;6792;57.698;11.946;2024-02-04T08:27:49;11.07;;;2.70;;
13439;SDS011;6792;57.698;11.946;2024-02-04T08:30:19;20.23;;;3.50;;
13439;SDS011;6792;57.698;11.946;2024-02-04T08:32:59;17.40;;;2.93;;
13439;SDS011;6792;57.698;11.946;2024-02-04T08:35:28;13.97;;;2.43;;
13439;SDS011;6792;57.698;11.946;2024-02-04T08:37:58;18.03;;;3.23;;
13439;SDS011;6792;57.698;11.946;2024-02-04T08:40:27;17.40;;;3.23;;
13439;SDS011;6792;57.698;11.946;2024-02-04T08:42:56;12.90;;;2.43;;
13439;SDS011;6792;57.698;11.946;2024-02-04T08:45:38;19.70;;;3.17;;
13439;SDS011;6792;57.698;11.946;2024-02-04T08:48:07;22.17;;;3.43;;
13439;SDS011;6792;57.698;11.946;2024-02-04T08:50:36;17.30;;;3.60;;
13439;SDS011;6792;57.698;11.946;2024-02-04T08:53:06;19.50;;;3.13;;
13439;SDS011;6792;57.698;11.946;2024-02-04T08:55:35;20.97;;;2.77;;
13439;SDS011;6792;57.698;11.946;2024-02-04T08:58:04;19.60;;;3.33;;
13439;SDS011;6792;57.698;11.946;2024-02-04T09:00:33;18.27;;;2.80;;
13439;SDS011;6792;57.698;11.946;2024-02-04T09:03:03;15.63;;;2.57;;
13439;SDS011;6792;57.698;11.946;2024-02-04T09:05:32;17.57;;;2.63;;
13439;SDS011;6792;57.698;11.946;2024-02-04T09:08:10;21.37;;;2.47;;
13439;SDS011;6792;57.698;11.946;2024-02-04T09:10:39;14.20;;;2.60;;
13439;SDS011;6792;57.698;11.946;2024-02-04T09:13:09;18.20;;;2.90;;
13439;SDS011;6792;57.698;11.946;2024-02-04T09:15:39;16.50;;;2.90;;
13439;SDS011;6792;57.698;11.946;2024-02-04T09:18:09;17.93;;;2.77;;
13439;SDS011;6792;57.698;11.946;2024-02-04T09:20:38;18.40;;;3.50;;
13439;SDS011;6792;57.698;11.946;2024-02-04T09:23:08;15.87;;;3.47;;
13439;SDS011;6792;57.698;11.946;2024-02-04T09:25:37;15.77;;;2.80;;
13439;SDS011;6792;57.698;11.946;2024-02-04T09:28:07;16.23;;;3.07;;
13439;SDS011;6792;57.698;11.946;2024-02-04T09:30:36;15.23;;;3.10;;
13439;SDS011;6792;57.698;11.946;2024-02-04T09:33:05;17.80;;;2.70;;
13439;SDS011;6792;57.698;11.946;2024-02-04T09:35:35;19.50;;;3.97;;
13439;SDS011;6792;57.698;11.946;2024-02-04T09:38:04;17.80;;;3.20;;
13439;SDS011;6792;57.698;11.946;2024-02-04T09:40:33;20.47;;;3.77;;
13439;SDS011;6792;57.698;11.946;2024-02-04T09:43:03;25.13;;;3.17;;
13439;SDS011;6792;57.698;11.946;2024-02-04T09:45:32;12.67;;;3.60;;
13439;SDS011;6792;57.698;11.946;2024-02-04T09:48:03;21.07;;;3.83;;
13439;SDS011;6792;57.698;11.946;2024-02-04T09:50:33;13.57;;;2.90;;
13439;SDS011;6792;57.698;11.946;2024-02-04T09:53:03;19.30;;;3.50;;
13439;SDS011;6792;57.698;11.946;2024-02-04T09:55:35;20.57;;;3.67;;
13439;SDS011;6792;57.698;11.946;2024-02-04T09:58:07;21.80;;;3.80;;
13439;SDS011;6792;57.698;11.946;2024-02-04T10:00:36;22.60;;;3.20;;
13439;SDS011;6792;57.698;11.946;2024-02-04T10:03:09;27.23;;;3.67;;
13439;SDS011;6792;57.698;11.946;2024-02-04T10:05:38;19.20;;;3.67;;
13439;SDS011;6792;57.698;11.946;2024-02-04T10:08:07;18.97;;;3.13;;
13439;SDS011;6792;57.698;11.946;2024-02-04T10:10:36;20.17;;;3.70;;
13439;SDS011;6792;57.698;11.946;2024-02-04T10:13:07;21.20;;;3.10;;
13439;SDS011;6792;57.698;11.946;2024-02-04T10:15:37;17.97;;;2.73;;
13439;SDS011;6792;57.698;11.946;2024-02-04T10:18:07;17.53;;;3.10;;
13439;SDS011;6792;57.698;11.946;2024-02-04T10:20:48;17.17;;;3.33;;
13439;SDS011;6792;57.698;11.946;2024-02-04T10:23:17;20.07;;;3.00;;
13439;SDS011;6792;57.698;11.946;2024-02-04T10:25:46;16.47;;;3.33;;
13439;SDS011;6792;57.698;11.946;2024-02-04T10:28:17;26.13;;;4.30;;
13439;SDS011;6792;57.698;11.946;2024-02-04T10:30:46;20.50;;;2.80;;
13439;SDS011;6792;57.698;11.946;2024-02-04T10:33:16;16.53;;;3.20;;
13439;SDS011;6792;57.698;11.946;2024-02-04T10:35:45;24.17;;;3.53;;
13439;SDS011;6792;57.698;11.946;2024-02-04T10:38:15;20.97;;;2.80;;
13439;SDS011;6792;57.698;11.946;2024-02-04T10:40:44;17.23;;;3.20;;
13439;SDS011;6792;57.698;11.946;2024-02-04T10:43:14;16.43;;;2.93;;
13439;SDS011;6792;57.698;11.946;2024-02-04T10:45:43;17.70;;;3.33;;
13439;SDS011;6792;57.698;11.946;2024-02-04T10:48:15;22.67;;;3.23;;
13439;SDS011;6792;57.698;11.946;2024-02-04T10:50:54;21.83;;;4.10;;
13439;SDS011;6792;57.698;11.946;2024-02-04T10:53:26;19.57;;;3.70;;
13439;SDS011;6792;57.698;11.946;2024-02-04T10:55:56;23.07;;;3.93;;
13439;SDS011;6792;57.698;11.946;2024-02-04T10:58:27;16.60;;;3.00;;
13439;SDS011;6792;57.698;11.946;2024-02-04T11:00:57;15.40;;;3.00;;
13439;SDS011;6792;57.698;11.946;2024-02-04T11:03:27;19.03;;;3.17;;
13439;SDS011;6792;57.698;11.946;2024-02-04T11:05:57;31.60;;;3.80;;
13439;SDS011;6792;57.698;11.946;2024-02-04T11:08:26;22.13;;;2.90;;
13439;SDS011;6792;57.698;11.946;2024-02-04T11:10:56;25.30;;;3.70;;
13439;SDS011;6792;57.698;11.946;2024-02-04T11:13:25;19.73;;;3.10;;
13439;SDS011;6792;57.698;11.946;2024-02-04T11:15:57;19.13;;;3.07;;
13439;SDS011;6792;57.698;11.946;2024-02-04T11:18:35;22.07;;;3.60;;
13439;SDS011;6792;57.698;11.946;2024-02-04T11:21:22;15.17;;;2.67;;
13439;SDS011;6792;57.698;11.946;2024-02-04T11:24:08;19.10;;;3.63;;
13439;SDS011;6792;57.698;11.946;2024-02-04T11:26:41;22.07;;;3.03;;
13439;SDS011;6792;57.698;11.946;2024-02-04T11:29:10;15.57;;;2.73;;
13439;SDS011;6792;57.698;11.946;2024-02-04T11:31:40;20.73;;;3.67;;
13439;SDS011;6792;57.698;11.946;2024-02-04T11:34:22;18.67;;;3.53;;
13439;SDS011;6792;57.698;11.946;2024-02-04T11:36:55;18.87;;;3.23;;
13439;SDS011;6792;57.698;11.946;2024-02-04T11:39:27;17.30;;;2.83;;
13439;SDS011;6792;57.698;11.946;2024-02-04T11:41:57;17.33;;;3.57;;
13439;SDS011;6792;57.698;11.946;2024-02-04T11:44:37;20.90;;;3.87;;
13439;SDS011;6792;57.698;11.946;2024-02-04T11:47:06;14.70;;;2.70;;
13439;SDS011;6792;57.698;11.946;2024-02-04T11:49:36;24.13;;;3.47;;
13439;SDS011;6792;57.698;11.946;2024-02-04T11:52:06;28.07;;;3.87;;
13439;SDS011;6792;57.698;11.946;2024-02-04T11:54:37;18.67;;;3.67;;
13439;SDS011;6792;57.698;11.946;2024-02-04T11:57:07;18.47;;;3.77;;
13439;SDS011;6792;57.698;11.946;2024-02-04T11:59:37;14.20;;;2.83;;
13439;SDS011;6792;57.698;11.946;2024-02-04T12:02:07;17.63;;;3.30;;
13439;SDS011;6792;57.698;11.946;2024-02-04T12:04:37;16.00;;;2.40;;
13439;SDS011;6792;57.698;11.946;2024-02-04T12:07:06;17.80;;;2.77;;
13439;SDS011;6792;57.698;11.946;2024-02-04T12:09:37;15.70;;;2.50;;
13439;SDS011;6792;57.698;11.946;2024-02-04T12:12:07;21.73;;;3.23;;
13439;SDS011;6792;57.698;11.946;2024-02-04T12:14:37;14.07;;;2.73;;
13439;SDS011;6792;57.698;11.946;2024-02-04T12:17:14;13.87;;;2.93;;
13439;SDS011;6792;57.698;11.946;2024-02-04T12:19:46;18.37;;;2.63;;
13439;SDS011;6792;57.698;11.946;2024-02-04T12:22:16;15.03;;;3.00;;
13439;SDS011;6792;57.698;11.946;2024-02-04T12:24:46;16.50;;;3.30;;
13439;SDS011;6792;57.698;11.946;2024-02-04T12:27:16;15.43;;;2.90;;
13439;SDS011;6792;57.698;11.946;2024-02-04T12:29:45;10.73;;;2.27;;
13439;SDS011;6792;57.698;11.946;2024-02-04T12:32:16;18.37;;;2.23;;
13439;SDS011;6792;57.698;11.946;2024-02-04T12:34:47;13.43;;;2.50;;
13439;SDS011;6792;57.698;11.946;2024-02-04T12:37:18;17.23;;;2.77;;
13439;SDS011;6792;57.698;11.946;2024-02-04T12:39:48;8.50;;;1.80;;
13439;SDS011;6792;57.698;11.946;2024-02-04T12:42:17;19.53;;;2.97;;
13439;SDS011;6792;57.698;11.946;2024-02-04T12:44:48;13.23;;;2.30;;
13439;SDS011;6792;57.698;11.946;2024-02-04T12:47:19;17.17;;;2.10;;
13439;SDS011;6792;57.698;11.946;2024-02-04T12:49:48;11.63;;;2.33;;
13439;SDS011;6792;57.698;11.946;2024-02-04T12:52:20;15.23;;;2.47;;
13439;SDS011;6792;57.698;11.946;2024-02-04T12:54:58;11.40;;;1.97;;
13439;SDS011;6792;57.698;11.946;2024-02-04T12:57:27;14.10;;;2.03;;
13439;SDS011;6792;57.698;11.946;2024-02-04T13:00:04;10.90;;;1.93;;
13439;SDS011;6792;57.698;11.946;2024-02-04T13:02:35;18.30;;;1.90;;
13439;SDS011;6792;57.698;11.946;2024-02-04T13:05:06;8.20;;;1.83;;
13439;SDS011;6792;57.698;11.946;2024-02-04T13:07:35;11.07;;;2.40;;
13439;SDS011;6792;57.698;11.946;2024-02-04T13:10:05;12.67;;;2.33;;
13439;SDS011;6792;57.698;11.946;2024-02-04T13:12:35;10.40;;;1.63;;
13439;SDS011;6792;57.698;11.946;2024-02-04T13:15:09;17.30;;;2.23;;
13439;SDS011;6792;57.698;11.946;2024-02-04T13:17:38;10.13;;;2.27;;
13439;SDS011;6792;57.698;11.946;2024-02-04T13:20:08;13.43;;;2.17;;
13439;SDS011;6792;57.698;11.946;2024-02-04T13:22:38;12.83;;;1.73;;
13439;SDS011;6792;57.698;11.946;2024-02-04T13:25:07;12.33;;;2.33;;
13439;SDS011;6792;57.698;11.946;2024-02-04T13:28:06;14.13;;;2.47;;
13439;SDS011;6792;57.698;11.946;2024-02-04T13:30:35;14.83;;;2.30;;
13439;SDS011;6792;57.698;11.946;2024-02-04T13:33:05;17.40;;;2.43;;
13439;SDS011;6792;57.698;11.946;2024-02-04T13:35:37;20.67;;;2.63;;
13439;SDS011;6792;57.698;11.946;2024-02-04T13:38:08;18.03;;;3.20;;
13439;SDS011;6792;57.698;11.946;2024-02-04T13:40:37;16.17;;;2.43;;
13439;SDS011;6792;57.698;11.946;2024-02-04T13:43:07;15.37;;;2.77;;
13439;SDS011;6792;57.698;11.946;2024-02-04T13:45:36;18.40;;;2.60;;
13439;SDS011;6792;57.698;11.946;2024-02-04T13:48:06;15.37;;;2.83;;
13439;SDS011;6792;57.698;11.946;2024-02-04T13:50:35;12.53;;;2.40;;
13439;SDS011;6792;57.698;11.946;2024-02-04T13:53:05;16.30;;;2.70;;
13439;SDS011;6792;57.698;11.946;2024-02-04T13:55:34;20.93;;;3.13;;
13439;SDS011;6792;57.698;11.946;2024-02-04T13:58:04;16.20;;;2.77;;
13439;SDS011;6792;57.698;11.946;2024-02-04T14:00:33;11.73;;;2.53;;
13439;SDS011;6792;57.698;11.946;2024-02-04T14:03:03;22.27;;;3.70;;
13439;SDS011;6792;57.698;11.946;2024-02-04T14:05:33;17.97;;;2.93;;
13439;SDS011;6792;57.698;11.946;2024-02-04T14:10:50;18.27;;;2.77;;
13439;SDS011;6792;57.698;11.946;2024-02-04T14:13:19;28.57;;;3.47;;
13439;SDS011;6792;57.698;11.946;2024-02-04T14:15:48;20.20;;;3.30;;
13439;SDS011;6792;57.698;11.946;2024-02-04T14:18:18;17.23;;;3.30;;
13439;SDS011;6792;57.698;11.946;2024-02-04T14:20:48;19.13;;;3.10;;
13439;SDS011;6792;57.698;11.946;2024-02-04T14:23:17;16.70;;;2.90;;
13439;SDS011;6792;57.698;11.946;2024-02-04T14:25:46;15.77;;;2.83;;
13439;SDS011;6792;57.698;11.946;2024-02-04T14:28:15;14.50;;;2.73;;
13439;SDS011;6792;57.698;11.946;2024-02-04T14:30:45;17.87;;;3.07;;
13439;SDS011;6792;57.698;11.946;2024-02-04T14:33:15;17.97;;;3.20;;
13439;SDS011;6792;57.698;11.946;2024-02-04T14:35:46;17.40;;;3.40;;
13439;SDS011;6792;57.698;11.946;2024-02-04T14:38:15;13.23;;;3.17;;
13439;SDS011;6792;57.698;11.946;2024-02-04T14:40:44;21.00;;;2.60;;
13439;SDS011;6792;57.698;11.946;2024-02-04T14:43:13;21.37;;;3.23;;
13439;SDS011;6792;57.698;11.946;2024-02-04T14:45:44;14.87;;;2.83;;
13439;SDS011;6792;57.698;11.946;2024-02-04T14:48:13;18.37;;;3.13;;
13439;SDS011;6792;57.698;11.946;2024-02-04T14:50:45;22.30;;;3.73;;
13439;SDS011;6792;57.698;11.946;2024-02-04T14:53:14;19.83;;;3.37;;
13439;SDS011;6792;57.698;11.946;2024-02-04T14:55:43;12.80;;;2.70;;
13439;SDS011;6792;57.698;11.946;2024-02-04T14:58:13;22.20;;;3.03;;